Time,TemperatureF,DewpointF,PressureIn,WindDirection,WindDirectionDegrees,WindSpeedMPH,WindSpeedGustMPH,Humidity,HourlyPrecipIn,Conditions,Clouds,dailyrainin,SolarRadiationWatts/m^2,SoftwareType,DateUTC
2013-07-22 00:01:00,66.0,50.0,-100.00,South,173,6.0,10.0,56,0.00,,,0.00,1.000000,,2013-07-22 06:01:00,
2013-07-22 00:11:00,66.0,50.0,-100.00,South,173,6.0,10.0,56,0.00,,,0.00,1.000000,,2013-07-22 06:11:00,
2013-07-22 00:43:00,65.0,52.0,-100.00,South,175,6.0,11.0,62,0.00,,,0.00,1.000000,,2013-07-22 06:43:00,
2013-07-22 00:52:00,65.0,52.0,-100.00,South,175,6.0,11.0,62,0.00,,,0.00,1.000000,,2013-07-22 06:52:00,
2013-07-22 01:01:00,65.0,52.0,-100.00,South,175,6.0,11.0,62,0.00,,,0.00,1.000000,,2013-07-22 07:01:00,
2013-07-22 01:11:00,65.0,52.0,-100.00,South,175,6.0,11.0,62,0.00,,,0.00,1.000000,,2013-07-22 07:11:00,
2013-07-22 01:43:00,65.0,51.0,-100.00,South,171,3.0,10.0,60,0.00,,,0.00,1.000000,,2013-07-22 07:43:00,
2013-07-22 01:53:00,65.0,51.0,-100.00,South,171,3.0,10.0,60,0.00,,,0.00,1.000000,,2013-07-22 07:53:00,
2013-07-22 02:02:00,65.0,51.0,-100.00,South,171,3.0,10.0,60,0.00,,,0.00,1.000000,,2013-07-22 08:02:00,
2013-07-22 02:11:00,65.0,51.0,-100.00,South,171,3.0,10.0,60,0.00,,,0.00,1.000000,,2013-07-22 08:11:00,
2013-07-22 02:43:00,64.0,51.0,-100.00,East,92,7.0,9.0,63,0.00,,,0.00,1.000000,,2013-07-22 08:43:00,
2013-07-22 02:52:00,64.0,51.0,-100.00,East,92,7.0,9.0,63,0.00,,,0.00,1.000000,,2013-07-22 08:52:00,
2013-07-22 03:02:00,64.0,51.0,-100.00,East,92,7.0,9.0,63,0.00,,,0.00,1.000000,,2013-07-22 09:02:00,
2013-07-22 03:11:00,64.0,51.0,-100.00,East,92,7.0,9.0,63,0.00,,,0.00,1.000000,,2013-07-22 09:11:00,
2013-07-22 03:42:00,63.0,52.0,-100.00,ENE,70,6.0,10.0,68,0.00,,,0.00,1.000000,,2013-07-22 09:42:00,
2013-07-22 03:52:00,63.0,52.0,-100.00,ENE,70,6.0,10.0,68,0.00,,,0.00,1.000000,,2013-07-22 09:52:00,
2013-07-22 04:02:00,63.0,52.0,-100.00,ENE,70,6.0,10.0,68,0.00,,,0.00,1.000000,,2013-07-22 10:02:00,
2013-07-22 04:11:00,63.0,52.0,-100.00,ENE,70,6.0,10.0,68,0.00,,,0.00,1.000000,,2013-07-22 10:11:00,
2013-07-22 04:43:00,63.0,52.0,-100.00,ENE,68,7.0,9.0,67,0.00,,,0.00,1.000000,,2013-07-22 10:43:00,
2013-07-22 04:53:00,63.0,52.0,-100.00,ENE,68,7.0,9.0,67,0.00,,,0.00,1.000000,,2013-07-22 10:53:00,
2013-07-22 05:01:00,63.0,52.0,-100.00,ENE,68,7.0,9.0,67,0.00,,,0.00,1.000000,,2013-07-22 11:01:00,
2013-07-22 05:11:00,63.0,52.0,-100.00,ENE,68,7.0,9.0,67,0.00,,,0.00,1.000000,,2013-07-22 11:11:00,
2013-07-22 05:43:00,61.0,52.0,-100.00,ENE,71,6.0,8.0,72,0.00,,,0.00,1.000000,,2013-07-22 11:43:00,
2013-07-22 05:52:00,61.0,52.0,-100.00,ENE,71,6.0,8.0,72,0.00,,,0.00,1.000000,,2013-07-22 11:52:00,
2013-07-22 06:02:00,61.0,52.0,-100.00,ENE,71,6.0,8.0,72,0.00,,,0.00,1.000000,,2013-07-22 12:02:00,
2013-07-22 06:11:00,61.0,52.0,-100.00,ENE,71,6.0,8.0,72,0.00,,,0.00,1.000000,,2013-07-22 12:11:00,
2013-07-22 06:43:00,60.0,51.0,-100.00,ENE,64,5.0,8.0,73,0.01,,,0.01,1.000000,,2013-07-22 12:43:00,
2013-07-22 06:53:00,60.0,51.0,-100.00,ENE,64,5.0,8.0,73,0.01,,,0.01,1.000000,,2013-07-22 12:53:00,
2013-07-22 07:01:00,60.0,51.0,-100.00,ENE,64,5.0,8.0,73,0.01,,,0.01,1.000000,,2013-07-22 13:01:00,
2013-07-22 07:11:00,60.0,51.0,-100.00,ENE,64,5.0,8.0,73,0.01,,,0.01,1.000000,,2013-07-22 13:11:00,
2013-07-22 07:43:00,65.0,53.0,-100.00,SE,129,3.0,7.0,65,0.00,,,0.01,52.000000,,2013-07-22 13:43:00,
2013-07-22 07:53:00,65.0,53.0,-100.00,SE,129,3.0,7.0,65,0.00,,,0.01,52.000000,,2013-07-22 13:53:00,
2013-07-22 08:01:00,65.0,53.0,-100.00,SE,129,3.0,7.0,65,0.00,,,0.01,52.000000,,2013-07-22 14:01:00,
2013-07-22 08:11:00,65.0,53.0,-100.00,SE,129,3.0,7.0,65,0.00,,,0.01,52.000000,,2013-07-22 14:11:00,
2013-07-22 08:43:00,71.0,51.0,-100.00,SSE,154,4.0,7.0,49,0.00,,,0.01,266.000000,,2013-07-22 14:43:00,
2013-07-22 08:53:00,71.0,51.0,-100.00,SSE,154,4.0,7.0,49,0.00,,,0.01,266.000000,,2013-07-22 14:53:00,
2013-07-22 09:02:00,71.0,51.0,-100.00,SSE,154,4.0,7.0,49,0.00,,,0.01,266.000000,,2013-07-22 15:02:00,
2013-07-22 09:11:00,71.0,51.0,-100.00,SSE,154,4.0,7.0,49,0.00,,,0.01,266.000000,,2013-07-22 15:11:00,
2013-07-22 09:43:00,76.0,50.0,-100.00,SSW,193,2.0,8.0,40,0.00,,,0.01,467.000000,,2013-07-22 15:43:00,
2013-07-22 09:52:00,76.0,50.0,-100.00,SSW,193,2.0,8.0,40,0.00,,,0.01,467.000000,,2013-07-22 15:52:00,
2013-07-22 10:01:00,76.0,50.0,-100.00,SSW,193,2.0,8.0,40,0.00,,,0.01,467.000000,,2013-07-22 16:01:00,
2013-07-22 10:11:00,76.0,50.0,-100.00,SSW,193,2.0,8.0,40,0.00,,,0.01,467.000000,,2013-07-22 16:11:00,
2013-07-22 10:43:00,78.0,47.0,-100.00,NW,312,7.0,12.0,34,0.00,,,0.01,664.000000,,2013-07-22 16:43:00,
2013-07-22 10:52:00,78.0,47.0,-100.00,NW,312,7.0,12.0,34,0.00,,,0.01,664.000000,,2013-07-22 16:52:00,
2013-07-22 11:01:00,78.0,47.0,-100.00,NW,312,7.0,12.0,34,0.00,,,0.01,664.000000,,2013-07-22 17:01:00,
2013-07-22 11:11:00,78.0,47.0,-100.00,NW,312,7.0,12.0,34,0.00,,,0.01,664.000000,,2013-07-22 17:11:00,
2013-07-22 11:43:00,79.0,47.0,-100.00,NW,324,9.0,14.0,33,0.00,,,0.01,662.000000,,2013-07-22 17:43:00,
2013-07-22 11:52:00,79.0,47.0,-100.00,NW,324,9.0,14.0,33,0.00,,,0.01,662.000000,,2013-07-22 17:52:00,
2013-07-22 12:04:00,79.0,47.0,-100.00,NW,324,9.0,14.0,33,0.00,,,0.01,662.000000,,2013-07-22 18:04:00,
2013-07-22 12:13:00,79.0,47.0,-100.00,NW,324,9.0,14.0,33,0.00,,,0.01,662.000000,,2013-07-22 18:13:00,
2013-07-22 12:59:00,82.0,45.0,-100.00,West,279,9.0,16.0,27,0.00,,,0.01,1028.000000,,2013-07-22 18:59:00,
2013-07-22 13:14:00,82.0,45.0,-100.00,West,279,9.0,16.0,27,0.00,,,0.01,1028.000000,,2013-07-22 19:14:00,
2013-07-22 13:15:00,84.0,43.0,-100.00,NW,317,8.0,22.0,24,0.00,,,0.01,1103.000000,,2013-07-22 19:15:00,
2013-07-22 13:46:00,84.0,43.0,-100.00,NW,317,8.0,22.0,24,0.00,,,0.01,1103.000000,,2013-07-22 19:46:00,
2013-07-22 13:55:00,84.0,43.0,-100.00,NW,317,8.0,22.0,24,0.00,,,0.01,1103.000000,,2013-07-22 19:55:00,
2013-07-22 14:04:00,84.0,43.0,-100.00,NW,317,8.0,22.0,24,0.00,,,0.01,1103.000000,,2013-07-22 20:04:00,
2013-07-22 14:43:00,86.0,45.0,-100.00,WNW,282,9.0,20.0,24,0.00,,,0.01,1118.000000,,2013-07-22 20:43:00,
2013-07-22 14:52:00,86.0,45.0,-100.00,WNW,282,9.0,20.0,24,0.00,,,0.01,1118.000000,,2013-07-22 20:52:00,
2013-07-22 15:01:00,86.0,45.0,-100.00,WNW,282,9.0,20.0,24,0.00,,,0.01,1118.000000,,2013-07-22 21:01:00,
2013-07-22 15:12:00,86.0,45.0,-100.00,WNW,282,9.0,20.0,24,0.00,,,0.01,1118.000000,,2013-07-22 21:12:00,
2013-07-22 15:43:00,87.0,42.0,-100.00,WSW,240,9.0,18.0,21,0.00,,,0.01,1085.000000,,2013-07-22 21:43:00,
2013-07-22 15:53:00,87.0,42.0,-100.00,WSW,240,9.0,18.0,21,0.00,,,0.01,1085.000000,,2013-07-22 21:53:00,
2013-07-22 16:01:00,87.0,42.0,-100.00,WSW,240,9.0,18.0,21,0.00,,,0.01,1085.000000,,2013-07-22 22:01:00,
2013-07-22 16:11:00,87.0,42.0,-100.00,WSW,240,9.0,18.0,21,0.00,,,0.01,1085.000000,,2013-07-22 22:11:00,
2013-07-22 16:43:00,89.0,40.0,-100.00,NW,317,10.0,19.0,18,0.00,,,0.01,980.000000,,2013-07-22 22:43:00,
2013-07-22 16:52:00,89.0,40.0,-100.00,NW,317,10.0,19.0,18,0.00,,,0.01,980.000000,,2013-07-22 22:52:00,
2013-07-22 17:01:00,89.0,40.0,-100.00,NW,317,10.0,19.0,18,0.00,,,0.01,980.000000,,2013-07-22 23:01:00,
2013-07-22 17:11:00,89.0,40.0,-100.00,NW,317,10.0,19.0,18,0.00,,,0.01,980.000000,,2013-07-22 23:11:00,
2013-07-22 18:43:00,79.0,42.0,-100.00,ENE,65,21.0,30.0,27,-99.99,,,0.01,283.000000,,2013-07-23 00:43:00,
2013-07-22 18:52:00,79.0,42.0,-100.00,ENE,65,21.0,30.0,27,-99.99,,,0.01,283.000000,,2013-07-23 00:52:00,
2013-07-22 19:01:00,79.0,42.0,-100.00,ENE,65,21.0,30.0,27,-99.99,,,0.01,283.000000,,2013-07-23 01:01:00,
2013-07-22 19:11:00,79.0,42.0,-100.00,ENE,65,21.0,30.0,27,-99.99,,,0.01,283.000000,,2013-07-23 01:11:00,
2013-07-22 19:43:00,75.0,47.0,-100.00,ESE,109,13.0,25.0,37,0.00,,,0.01,54.000000,,2013-07-23 01:43:00,
2013-07-22 19:53:00,75.0,47.0,-100.00,ESE,109,13.0,25.0,37,0.00,,,0.01,54.000000,,2013-07-23 01:53:00,
2013-07-22 20:01:00,75.0,47.0,-100.00,ESE,109,13.0,25.0,37,0.00,,,0.01,54.000000,,2013-07-23 02:01:00,
2013-07-22 20:11:00,75.0,47.0,-100.00,ESE,109,13.0,25.0,37,0.00,,,0.01,54.000000,,2013-07-23 02:11:00,
2013-07-22 20:43:00,76.0,44.0,-100.00,ESE,113,8.0,15.0,32,0.00,,,0.01,69.000000,,2013-07-23 02:43:00,
2013-07-22 20:53:00,76.0,44.0,-100.00,ESE,113,8.0,15.0,32,0.00,,,0.01,69.000000,,2013-07-23 02:53:00,
2013-07-22 21:01:00,76.0,44.0,-100.00,ESE,113,8.0,15.0,32,0.00,,,0.01,69.000000,,2013-07-23 03:01:00,
2013-07-22 21:11:00,76.0,44.0,-100.00,ESE,113,8.0,15.0,32,0.00,,,0.01,69.000000,,2013-07-23 03:11:00,
2013-07-22 21:43:00,75.0,41.0,-100.00,SE,129,5.0,9.0,30,0.00,,,0.01,2.000000,,2013-07-23 03:43:00,
2013-07-22 21:52:00,75.0,41.0,-100.00,SE,129,5.0,9.0,30,0.00,,,0.01,2.000000,,2013-07-23 03:52:00,
2013-07-22 22:01:00,75.0,41.0,-100.00,SE,129,5.0,9.0,30,0.00,,,0.01,2.000000,,2013-07-23 04:01:00,
2013-07-22 22:11:00,75.0,41.0,-100.00,SE,129,5.0,9.0,30,0.00,,,0.01,2.000000,,2013-07-23 04:11:00,
2013-07-22 22:43:00,73.0,41.0,-100.00,SW,229,4.0,9.0,32,0.00,,,0.01,1.000000,,2013-07-23 04:43:00,
2013-07-22 22:53:00,73.0,41.0,-100.00,SW,229,4.0,9.0,32,0.00,,,0.01,1.000000,,2013-07-23 04:53:00,
2013-07-22 23:02:00,73.0,41.0,-100.00,SW,229,4.0,9.0,32,0.00,,,0.01,1.000000,,2013-07-23 05:02:00,
2013-07-22 23:11:00,73.0,41.0,-100.00,SW,229,4.0,9.0,32,0.00,,,0.01,1.000000,,2013-07-23 05:11:00,
2013-07-22 23:44:00,72.0,49.0,-100.00,South,189,4.0,9.0,44,0.00,,,0.01,1.000000,,2013-07-23 05:44:00,
2013-07-22 23:52:00,72.0,49.0,-100.00,South,189,4.0,9.0,44,0.00,,,0.01,1.000000,,2013-07-23 05:52:00,